Time;durP1;ratioP1;P1;durP2;ratioP2;P2;SDS_P1;SDS_P2;PMS_P1;PMS_P2;Temp;Humidity;BMP_temperature;BMP_pressure;BME280_temperature;BME280_humidity;BME280_pressure;Samples;Min_cycle;Max_cycle;Signal;HPM_P1;HPM_P2
2022/11/29 00:00:18;;;;;;;;;;;7.70;99.90;;;;;;5076590;28;19919;-68
2022/11/29 00:02:43;;;;;;;;;;;7.70;99.90;;;;;;5076599;28;19913;-68
2022/11/29 00:05:08;;;;;;;;;;;7.70;99.90;;;;;;5058696;28;20312;-68
2022/11/29 00:07:34;;;;;;;;;;;7.70;99.90;;;;;;5076460;28;19944;-69
2022/11/29 00:09:59;;;;;;;;;;;7.70;99.90;;;;;;5076461;28;19909;-67
2022/11/29 00:12:25;;;;;;;;;;;7.70;99.90;;;;;;5058463;28;20003;-68
2022/11/29 00:14:50;;;;;;;;;;;7.70;99.90;;;;;;5076583;28;19909;-68
2022/11/29 00:17:16;;;;;;;;;;;7.70;99.90;;;;;;5058424;28;20380;-68
2022/11/29 00:19:41;;;;;;;;;;;7.70;99.90;;;;;;5058458;28;20393;-68
2022/11/29 00:22:07;;;;;;;;;;;7.70;99.90;;;;;;5058368;28;19916;-68
2022/11/29 00:24:33;;;;;;;;;;;7.80;99.90;;;;;;5076181;28;19908;-67
2022/11/29 00:26:59;;;;;;;;;;;7.80;99.90;;;;;;5076397;28;19920;-68
2022/11/29 00:29:24;;;;;;;;;;;7.80;99.90;;;;;;5041071;28;19909;-68
2022/11/29 00:31:50;;;;;;;;;;;7.80;99.90;;;;;;5076251;28;19914;-68
2022/11/29 00:34:15;;;;;;;;;;;7.70;99.90;;;;;;5076009;28;19916;-68
2022/11/29 00:36:41;;;;;;;;;;;7.70;99.90;;;;;;5075902;28;19916;-68
2022/11/29 00:39:06;;;;;;;;;;;7.80;99.90;;;;;;5076037;28;20424;-68
2022/11/29 00:41:32;;;;;;;;;;;7.80;99.90;;;;;;5076140;28;20003;-68
2022/11/29 00:43:57;;;;;;;;;;;7.80;99.90;;;;;;5076087;28;19917;-68
2022/11/29 00:46:23;;;;;;;;;;;7.80;99.90;;;;;;5075790;28;19954;-68
2022/11/29 00:48:49;;;;;;;;;;;7.80;99.90;;;;;;5075998;28;19965;-68
2022/11/29 00:51:14;;;;;;;;;;;7.70;99.90;;;;;;5075703;28;19999;-68
2022/11/29 00:53:40;;;;;;;;;;;7.80;99.90;;;;;;5075643;28;19991;-67
2022/11/29 00:56:06;;;;;;;;;;;7.80;99.90;;;;;;5075417;28;19920;-68
2022/11/29 00:58:31;;;;;;;;;;;7.80;99.90;;;;;;5076045;28;20003;-68
2022/11/29 01:00:57;;;;;;;;;;;7.80;99.90;;;;;;5075774;28;19948;-68
2022/11/29 01:03:23;;;;;;;;;;;7.80;99.90;;;;;;5075497;28;19991;-68
2022/11/29 01:05:48;;;;;;;;;;;7.80;99.90;;;;;;5075675;28;19940;-68
2022/11/29 01:08:14;;;;;;;;;;;7.80;99.90;;;;;;5075441;28;19955;-68
2022/11/29 01:10:40;;;;;;;;;;;7.80;99.90;;;;;;5075578;28;20327;-68
2022/11/29 01:13:05;;;;;;;;;;;7.80;99.90;;;;;;5075302;28;20002;-68
2022/11/29 01:15:31;;;;;;;;;;;7.80;99.90;;;;;;5075219;28;19923;-68
2022/11/29 01:17:57;;;;;;;;;;;7.80;99.90;;;;;;5075342;28;19913;-68
2022/11/29 01:20:22;;;;;;;;;;;7.80;99.90;;;;;;5075127;28;19909;-68
2022/11/29 01:22:48;;;;;;;;;;;7.80;99.90;;;;;;5075329;28;19967;-68
2022/11/29 01:25:13;;;;;;;;;;;7.80;99.90;;;;;;5075070;28;19908;-68
2022/11/29 01:27:39;;;;;;;;;;;7.80;99.90;;;;;;5074935;28;20259;-68
2022/11/29 01:30:05;;;;;;;;;;;7.80;99.90;;;;;;5075190;28;19915;-68
2022/11/29 01:32:31;;;;;;;;;;;7.80;99.90;;;;;;5075129;28;20377;-67
2022/11/29 01:34:56;;;;;;;;;;;7.80;99.90;;;;;;5074829;28;19909;-67
2022/11/29 01:37:22;;;;;;;;;;;7.80;99.90;;;;;;5074689;28;19959;-68
2022/11/29 01:39:47;;;;;;;;;;;7.70;99.90;;;;;;5074327;28;20285;-68
2022/11/29 01:42:13;;;;;;;;;;;7.80;99.90;;;;;;5074211;28;19962;-67
2022/11/29 01:47:16;;;;;;;;;;;7.80;99.90;;;;;;5106752;27;1904417;-67
2022/11/29 01:49:43;;;;;;;;;;;7.70;99.90;;;;;;5173674;27;19911;-66
2022/11/29 01:52:12;;;;;;;;;;;7.80;99.90;;;;;;5173532;27;19914;-67
2022/11/29 01:54:40;;;;;;;;;;;7.80;99.90;;;;;;5173476;27;19915;-66
2022/11/29 01:57:07;;;;;;;;;;;7.80;99.90;;;;;;5173505;27;19907;-66
2022/11/29 01:59:32;;;;;;;;;;;7.80;99.90;;;;;;5173350;27;20364;-66
2022/11/29 02:02:03;;;;;;;;;;;7.80;99.90;;;;;;5173329;27;19911;-66
2022/11/29 02:04:31;;;;;;;;;;;7.80;99.90;;;;;;5173268;27;19914;-67
2022/11/29 02:06:56;;;;;;;;;;;7.80;99.90;;;;;;5173460;27;19918;-66
2022/11/29 02:09:22;;;;;;;;;;;7.70;99.90;;;;;;5173173;27;19907;-66
2022/11/29 02:12:07;;;;;;;;;;;7.80;99.90;;;;;;5173205;27;19911;-66
2022/11/29 02:14:53;;;;;;;;;;;7.80;99.90;;;;;;5154364;27;19908;-66
2022/11/29 02:17:24;;;;;;;;;;;7.70;99.90;;;;;;5172926;27;19914;-66
2022/11/29 02:20:01;;;;;;;;;;;7.80;99.90;;;;;;5173271;27;20314;-67
2022/11/29 02:22:29;;;;;;;;;;;7.80;99.90;;;;;;5172957;27;19907;-66
2022/11/29 02:25:00;;;;;;;;;;;7.80;99.90;;;;;;5172815;27;19907;-66
2022/11/29 02:27:45;;;;;;;;;;;7.80;99.90;;;;;;5172861;27;19907;-67
2022/11/29 02:30:18;;;;;;;;;;;7.80;99.90;;;;;;5172771;27;19911;-67
2022/11/29 02:33:03;;;;;;;;;;;7.80;99.90;;;;;;5173019;27;20360;-66
2022/11/29 02:35:33;;;;;;;;;;;7.80;99.90;;;;;;5172548;27;19907;-66
2022/11/29 02:38:18;;;;;;;;;;;7.80;99.90;;;;;;5172912;27;19929;-67
2022/11/29 02:40:54;;;;;;;;;;;7.80;99.90;;;;;;5172550;27;20269;-68
2022/11/29 02:43:40;;;;;;;;;;;7.80;99.90;;;;;;5172556;27;20291;-67
2022/11/29 02:46:11;;;;;;;;;;;7.80;99.90;;;;;;5172031;27;20435;-67
2022/11/29 02:48:56;;;;;;;;;;;7.80;99.90;;;;;;5172502;27;19911;-67
2022/11/29 02:51:26;;;;;;;;;;;7.80;99.90;;;;;;5172235;27;19951;-67
2022/11/29 02:54:03;;;;;;;;;;;7.80;99.90;;;;;;5172330;27;20017;-67
2022/11/29 02:56:35;;;;;;;;;;;7.80;99.90;;;;;;5171467;27;19914;-67
2022/11/29 02:59:06;;;;;;;;;;;7.90;99.90;;;;;;5158122;27;19938;-67
2022/11/29 03:01:38;;;;;;;;;;;7.90;99.90;;;;;;5158325;27;19907;-67
2022/11/29 03:04:24;;;;;;;;;;;7.90;99.90;;;;;;5158509;27;20002;-67
2022/11/29 03:06:57;;;;;;;;;;;7.90;99.90;;;;;;5158151;27;20287;-67
2022/11/29 03:09:34;;;;;;;;;;;7.90;99.90;;;;;;5158450;27;19907;-68
2022/11/29 03:12:06;;;;;;;;;;;7.90;99.90;;;;;;5139503;27;20014;-67
2022/11/29 03:14:45;;;;;;;;;;;7.90;99.90;;;;;;5158329;27;19907;-67
2022/11/29 03:17:15;;;;;;;;;;;7.90;99.90;;;;;;5158094;27;19907;-68
2022/11/29 03:19:54;;;;;;;;;;;7.90;99.90;;;;;;5139384;27;19913;-68
2022/11/29 03:22:39;;;;;;;;;;;7.90;99.90;;;;;;5158201;27;19998;-68
2022/11/29 03:25:08;;;;;;;;;;;7.90;99.90;;;;;;5157740;27;19911;-66
2022/11/29 03:27:54;;;;;;;;;;;7.90;99.90;;;;;;5158099;27;20412;-68
2022/11/29 03:30:20;;;;;;;;;;;7.90;99.90;;;;;;5157639;27;20416;-67
2022/11/29 03:32:54;;;;;;;;;;;7.90;99.90;;;;;;5157742;27;19933;-67
2022/11/29 03:35:27;;;;;;;;;;;7.90;99.90;;;;;;5157886;27;20379;-66
2022/11/29 03:37:58;;;;;;;;;;;7.90;99.90;;;;;;5157592;27;20269;-67
2022/11/29 03:40:32;;;;;;;;;;;7.90;99.90;;;;;;5157541;27;19917;-67
2022/11/29 03:43:17;;;;;;;;;;;7.90;99.90;;;;;;5157490;27;19911;-67
2022/11/29 03:45:47;;;;;;;;;;;7.90;99.90;;;;;;5157154;27;19982;-67
2022/11/29 03:48:19;;;;;;;;;;;7.90;99.90;;;;;;5157392;27;19959;-67
2022/11/29 03:50:50;;;;;;;;;;;7.90;99.90;;;;;;5157581;27;19907;-68
2022/11/29 03:53:21;;;;;;;;;;;7.90;99.90;;;;;;5157330;27;20040;-68
2022/11/29 03:58:45;;;;;;;;;;;7.90;99.90;;;;;;5091355;28;19919;-67
2022/11/29 04:01:31;;;;;;;;;;;7.90;99.90;;;;;;5091263;28;19919;-65
2022/11/29 04:04:16;;;;;;;;;;;7.90;99.90;;;;;;5091275;28;19912;-67
2022/11/29 04:07:01;;;;;;;;;;;7.90;99.90;;;;;;5091202;28;19999;-67
2022/11/29 04:09:38;;;;;;;;;;;7.90;99.90;;;;;;5091091;28;19920;-69
2022/11/29 04:12:23;;;;;;;;;;;7.90;99.90;;;;;;5090945;28;19915;-69
2022/11/29 04:15:06;;;;;;;;;;;7.90;99.90;;;;;;5090933;28;19908;-69
2022/11/29 04:17:52;;;;;;;;;;;7.90;99.90;;;;;;5091050;28;19913;-69
2022/11/29 04:23:22;;;;;;;;;;;7.90;99.90;;;;;;5091436;27;19919;-67
2022/11/29 04:26:08;;;;;;;;;;;7.90;99.90;;;;;;5091285;28;20342;-68
2022/11/29 04:28:46;;;;;;;;;;;7.90;99.90;;;;;;5091192;28;20366;-67
2022/11/29 04:31:32;;;;;;;;;;;7.90;99.90;;;;;;5091115;28;19931;-67
2022/11/29 04:34:17;;;;;;;;;;;7.90;99.90;;;;;;5091123;28;20275;-67
2022/11/29 04:36:51;;;;;;;;;;;7.90;99.90;;;;;;5091143;28;20358;-66
2022/11/29 04:39:36;;;;;;;;;;;7.90;99.90;;;;;;5090944;28;19944;-67
2022/11/29 04:42:21;;;;;;;;;;;7.90;99.90;;;;;;5090832;28;19919;-66
2022/11/29 04:44:58;;;;;;;;;;;7.90;99.90;;;;;;5090849;28;19912;-66
2022/11/29 04:47:43;;;;;;;;;;;7.90;99.90;;;;;;5090923;28;20431;-66
2022/11/29 04:50:13;;;;;;;;;;;7.90;99.90;;;;;;5091002;28;20388;-67
2022/11/29 04:52:54;;;;;;;;;;;7.90;99.90;;;;;;5090901;28;20377;-67
2022/11/29 04:55:39;;;;;;;;;;;7.90;99.90;;;;;;5090654;28;19916;-67
2022/11/29 04:58:24;;;;;;;;;;;7.90;99.90;;;;;;5090663;28;20308;-66
2022/11/29 05:01:01;;;;;;;;;;;7.90;99.90;;;;;;5090554;28;20370;-67
2022/11/29 05:03:37;;;;;;;;;;;7.90;99.90;;;;;;5090502;28;20408;-67
2022/11/29 05:06:22;;;;;;;;;;;7.90;99.90;;;;;;5090330;28;20415;-66
2022/11/29 05:08:53;;;;;;;;;;;7.90;99.90;;;;;;5090388;28;19909;-66
2022/11/29 05:11:25;;;;;;;;;;;7.90;99.90;;;;;;5090595;28;20433;-67
2022/11/29 05:14:03;;;;;;;;;;;7.90;99.90;;;;;;5090274;28;19957;-66
2022/11/29 05:16:45;;;;;;;;;;;7.90;99.90;;;;;;5090512;28;20339;-66
2022/11/29 05:19:27;;;;;;;;;;;7.90;99.90;;;;;;5088885;28;19915;-67
2022/11/29 05:22:12;;;;;;;;;;;7.90;99.90;;;;;;5100838;28;19920;-66
2022/11/29 05:24:58;;;;;;;;;;;7.90;99.90;;;;;;5110396;28;20364;-66
2022/11/29 05:27:43;;;;;;;;;;;7.90;99.90;;;;;;5110162;28;20492;-66
2022/11/29 05:30:17;;;;;;;;;;;7.90;99.90;;;;;;5110183;28;19912;-66
2022/11/29 05:32:54;;;;;;;;;;;7.90;99.90;;;;;;5106154;28;19908;-66
2022/11/29 05:35:40;;;;;;;;;;;7.90;99.90;;;;;;5078614;28;19908;-66
2022/11/29 05:38:25;;;;;;;;;;;7.90;99.90;;;;;;5096437;28;20036;-66
2022/11/29 05:41:10;;;;;;;;;;;7.90;99.90;;;;;;5096252;28;19912;-67
2022/11/29 05:43:52;;;;;;;;;;;7.90;99.90;;;;;;5096371;28;19908;-66
2022/11/29 05:46:37;;;;;;;;;;;7.90;99.90;;;;;;5096421;28;19947;-67
2022/11/29 05:51:49;;;;;;;;;;;7.90;99.90;;;;;;5091315;27;20297;-66
2022/11/29 05:54:34;;;;;;;;;;;7.90;99.90;;;;;;5091195;28;20015;-66
2022/11/29 05:57:19;;;;;;;;;;;7.90;99.90;;;;;;5091223;28;19909;-66
2022/11/29 05:59:46;;;;;;;;;;;7.90;99.90;;;;;;5091102;28;19908;-65
2022/11/29 06:05:11;;;;;;;;;;;7.90;99.90;;;;;;5071183;28;20298;-66
2022/11/29 06:07:43;;;;;;;;;;;7.90;99.90;;;;;;5071270;28;20004;-66
2022/11/29 06:10:16;;;;;;;;;;;8.00;99.90;;;;;;5071251;28;20381;-66
2022/11/29 06:12:46;;;;;;;;;;;8.00;99.90;;;;;;5070925;28;19909;-66
2022/11/29 06:15:23;;;;;;;;;;;7.90;99.90;;;;;;5070796;28;19948;-66
2022/11/29 06:18:00;;;;;;;;;;;7.90;99.90;;;;;;5070739;28;19912;-66
2022/11/29 06:20:45;;;;;;;;;;;8.00;99.90;;;;;;5071006;28;20401;-66
2022/11/29 06:23:16;;;;;;;;;;;8.00;99.90;;;;;;5070579;28;20492;-65
2022/11/29 06:25:52;;;;;;;;;;;8.00;99.90;;;;;;5070653;28;20014;-66
2022/11/29 06:28:37;;;;;;;;;;;7.90;99.90;;;;;;5070818;28;19909;-66
2022/11/29 06:31:22;;;;;;;;;;;8.00;99.90;;;;;;5070518;28;20016;-66
2022/11/29 06:34:08;;;;;;;;;;;7.90;99.90;;;;;;5070421;28;19908;-66
2022/11/29 06:36:38;;;;;;;;;;;8.00;99.90;;;;;;5070390;28;19908;-66
2022/11/29 06:39:04;;;;;;;;;;;8.00;99.90;;;;;;5070292;28;20388;-65
2022/11/29 06:41:29;;;;;;;;;;;8.00;99.90;;;;;;5070300;28;19909;-66
2022/11/29 06:43:55;;;;;;;;;;;7.90;99.90;;;;;;5070173;28;19917;-66
2022/11/29 06:46:25;;;;;;;;;;;8.00;99.90;;;;;;5070204;28;20263;-66
2022/11/29 06:49:02;;;;;;;;;;;7.90;99.90;;;;;;5070069;28;19916;-66
2022/11/29 06:51:31;;;;;;;;;;;8.00;99.90;;;;;;5070033;28;19915;-66
2022/11/29 06:54:17;;;;;;;;;;;7.90;99.90;;;;;;5070021;28;20286;-66
2022/11/29 06:56:45;;;;;;;;;;;8.00;99.90;;;;;;5069878;28;20354;-66
2022/11/29 06:59:21;;;;;;;;;;;8.00;99.90;;;;;;5067108;28;19916;-66
2022/11/29 07:02:00;;;;;;;;;;;8.00;99.90;;;;;;5049610;28;20007;-66
2022/11/29 07:04:38;;;;;;;;;;;8.00;99.90;;;;;;5063652;28;19932;-65
2022/11/29 07:07:12;;;;;;;;;;;8.00;99.90;;;;;;5069903;28;19912;-66
2022/11/29 07:09:38;;;;;;;;;;;8.00;99.90;;;;;;5069717;28;19909;-65
2022/11/29 07:12:03;;;;;;;;;;;8.10;99.90;;;;;;5069741;28;19919;-66
2022/11/29 07:14:29;;;;;;;;;;;8.00;99.90;;;;;;5083852;28;19912;-66
2022/11/29 07:17:01;;;;;;;;;;;8.00;99.90;;;;;;5066310;28;20340;-66
2022/11/29 07:19:36;;;;;;;;;;;8.00;99.90;;;;;;5069977;28;20046;-66
2022/11/29 07:22:22;;;;;;;;;;;8.00;99.90;;;;;;5062673;28;19920;-67
2022/11/29 07:24:55;;;;;;;;;;;8.00;99.90;;;;;;5055891;28;20011;-65
2022/11/29 07:27:28;;;;;;;;;;;8.00;99.90;;;;;;5069480;28;20293;-65
2022/11/29 07:30:05;;;;;;;;;;;8.00;99.90;;;;;;5056022;28;19959;-65
2022/11/29 07:32:50;;;;;;;;;;;8.00;99.90;;;;;;5055777;28;20440;-65
2022/11/29 07:35:20;;;;;;;;;;;8.00;99.90;;;;;;5061215;28;20374;-66
2022/11/29 07:38:05;;;;;;;;;;;8.00;99.90;;;;;;5056081;28;19913;-66
2022/11/29 07:40:51;;;;;;;;;;;8.00;99.90;;;;;;5055433;28;19959;-65
2022/11/29 07:43:24;;;;;;;;;;;8.00;99.90;;;;;;5054930;28;20023;-65
2022/11/29 07:45:50;;;;;;;;;;;8.00;99.90;;;;;;5056841;28;19920;-66
2022/11/29 07:48:16;;;;;;;;;;;8.00;99.90;;;;;;5059585;28;19913;-65
2022/11/29 07:50:42;;;;;;;;;;;8.10;99.90;;;;;;5067339;28;20400;-67
2022/11/29 07:53:12;;;;;;;;;;;8.10;99.90;;;;;;5074648;28;19912;-68
2022/11/29 07:55:37;;;;;;;;;;;8.10;99.90;;;;;;5067996;28;19971;-66
2022/11/29 07:58:03;;;;;;;;;;;8.00;99.90;;;;;;5059186;28;20393;-66
2022/11/29 08:00:28;;;;;;;;;;;8.00;99.90;;;;;;5071863;28;20031;-66
2022/11/29 08:02:53;;;;;;;;;;;8.00;99.90;;;;;;5074691;28;19931;-66
2022/11/29 08:05:19;;;;;;;;;;;8.10;99.90;;;;;;5073788;28;19974;-67
2022/11/29 08:07:46;;;;;;;;;;;8.10;99.90;;;;;;5074823;28;19917;-66
2022/11/29 08:10:13;;;;;;;;;;;8.10;99.90;;;;;;5072599;28;19916;-66
2022/11/29 08:12:42;;;;;;;;;;;8.10;99.90;;;;;;5074193;28;19913;-66
2022/11/29 08:15:08;;;;;;;;;;;8.10;99.90;;;;;;5065753;28;19958;-67
2022/11/29 08:17:35;;;;;;;;;;;8.10;99.90;;;;;;5056842;28;20374;-66
2022/11/29 08:20:00;;;;;;;;;;;8.10;99.90;;;;;;5052767;28;20293;-67
2022/11/29 08:22:26;;;;;;;;;;;8.10;99.90;;;;;;5072125;28;20011;-66
2022/11/29 08:24:51;;;;;;;;;;;8.20;99.90;;;;;;5074588;28;19927;-64
2022/11/29 08:27:17;;;;;;;;;;;8.20;99.90;;;;;;5059233;28;19916;-65
2022/11/29 08:29:42;;;;;;;;;;;8.20;99.90;;;;;;5065128;28;19913;-65
2022/11/29 08:32:08;;;;;;;;;;;8.20;99.90;;;;;;5056737;28;19915;-64
2022/11/29 08:34:33;;;;;;;;;;;8.20;99.90;;;;;;5074696;28;19938;-64
2022/11/29 08:36:59;;;;;;;;;;;8.20;99.90;;;;;;5063504;28;19965;-66
2022/11/29 08:39:24;;;;;;;;;;;8.20;99.90;;;;;;5074147;28;19920;-66
2022/11/29 08:41:49;;;;;;;;;;;8.20;99.90;;;;;;5072983;28;19978;-67
2022/11/29 08:44:15;;;;;;;;;;;8.20;99.90;;;;;;5072374;28;19920;-66
2022/11/29 08:49:26;;;;;;;;;;;8.20;99.90;;;;;;5054169;28;19916;-66
2022/11/29 08:53:39;;;;;;;;;;;8.10;99.90;;;;;;5038633;28;20314;-66
2022/11/29 08:54:37;;;;;;;;;;;8.10;99.90;;;;;;5073595;28;19908;-67
2022/11/29 08:57:03;;;;;;;;;;;8.20;99.90;;;;;;5062036;28;19920;-66
2022/11/29 08:59:28;;;;;;;;;;;8.20;99.90;;;;;;5073965;28;20285;-66
2022/11/29 09:01:54;;;;;;;;;;;8.20;99.90;;;;;;5073640;28;19940;-67
2022/11/29 09:04:19;;;;;;;;;;;8.20;99.90;;;;;;5073726;28;20029;-66
2022/11/29 09:06:48;;;;;;;;;;;8.20;99.90;;;;;;5070156;28;20011;-68
2022/11/29 09:09:13;;;;;;;;;;;8.20;99.90;;;;;;5075500;28;20229;-66
2022/11/29 09:11:39;;;;;;;;;;;8.20;99.90;;;;;;5071270;28;19995;-67
2022/11/29 09:14:05;;;;;;;;;;;8.20;99.90;;;;;;5093993;28;19908;-68
2022/11/29 09:16:32;;;;;;;;;;;8.20;99.90;;;;;;5046992;28;20011;-66
2022/11/29 09:18:57;;;;;;;;;;;8.20;99.90;;;;;;5085641;28;19912;-66
2022/11/29 09:21:24;;;;;;;;;;;8.20;99.90;;;;;;5079234;28;20258;-67
2022/11/29 09:23:56;;;;;;;;;;;8.30;99.90;;;;;;5060790;28;19916;-66
2022/11/29 09:26:22;;;;;;;;;;;8.30;99.90;;;;;;5083385;28;20427;-66
2022/11/29 09:28:48;;;;;;;;;;;8.30;99.90;;;;;;5082508;28;19908;-67
2022/11/29 09:31:14;;;;;;;;;;;8.30;99.90;;;;;;5074641;28;19912;-68
2022/11/29 09:33:40;;;;;;;;;;;8.30;99.90;;;;;;5069302;28;19938;-66
2022/11/29 09:36:06;;;;;;;;;;;8.40;99.90;;;;;;5078327;28;20365;-66
2022/11/29 09:38:32;;;;;;;;;;;8.40;99.90;;;;;;5081099;28;19934;-67
2022/11/29 09:41:03;;;;;;;;;;;8.40;99.90;;;;;;5093451;28;19908;-67
2022/11/29 09:43:34;;;;;;;;;;;8.50;99.90;;;;;;5074488;28;19982;-67
2022/11/29 09:46:04;;;;;;;;;;;8.50;99.90;;;;;;5065947;28;19916;-66
2022/11/29 09:48:36;;;;;;;;;;;8.40;99.90;;;;;;5076776;28;19952;-66
2022/11/29 09:51:22;;;;;;;;;;;8.50;99.90;;;;;;5070013;28;19916;-66
2022/11/29 09:53:57;;;;;;;;;;;8.50;99.90;;;;;;5090545;28;19967;-67
2022/11/29 09:56:43;;;;;;;;;;;8.60;99.90;;;;;;5062852;28;19914;-66
2022/11/29 09:59:27;;;;;;;;;;;8.60;99.90;;;;;;5079057;28;20321;-66
2022/11/29 10:01:57;;;;;;;;;;;8.60;99.90;;;;;;5065422;28;19916;-67
2022/11/29 10:04:27;;;;;;;;;;;8.60;99.90;;;;;;5055225;28;19924;-66
2022/11/29 10:06:58;;;;;;;;;;;8.70;99.90;;;;;;5070950;28;20337;-66
2022/11/29 10:09:27;;;;;;;;;;;8.70;99.90;;;;;;5078862;28;19909;-66
2022/11/29 10:11:59;;;;;;;;;;;8.80;99.90;;;;;;5066472;28;20289;-66
2022/11/29 10:14:27;;;;;;;;;;;8.80;99.90;;;;;;5093242;28;19908;-66
2022/11/29 10:16:58;;;;;;;;;;;9.00;99.90;;;;;;5082666;28;20278;-67
2022/11/29 10:19:31;;;;;;;;;;;9.10;99.90;;;;;;5089138;28;19909;-66
2022/11/29 10:22:06;;;;;;;;;;;9.10;99.90;;;;;;5070653;28;19912;-67
2022/11/29 10:24:32;;;;;;;;;;;9.20;99.90;;;;;;5084145;28;19912;-66
2022/11/29 10:26:57;;;;;;;;;;;9.30;99.90;;;;;;5085653;28;20296;-66
2022/11/29 10:29:23;;;;;;;;;;;9.30;99.90;;;;;;5076773;28;19940;-66
2022/11/29 10:31:49;;;;;;;;;;;9.40;99.90;;;;;;5061312;28;19916;-66
2022/11/29 10:34:16;;;;;;;;;;;9.40;99.90;;;;;;5077683;28;20003;-66
2022/11/29 10:36:44;;;;;;;;;;;9.50;99.90;;;;;;5072369;28;19912;-66
2022/11/29 10:39:13;;;;;;;;;;;9.50;99.90;;;;;;5082575;28;20293;-67
2022/11/29 10:41:38;;;;;;;;;;;9.50;99.90;;;;;;5054682;28;19908;-67
2022/11/29 10:44:04;;;;;;;;;;;9.50;99.90;;;;;;5077927;28;19967;-68
2022/11/29 10:46:32;;;;;;;;;;;9.40;99.90;;;;;;5072811;28;19913;-66
2022/11/29 10:48:59;;;;;;;;;;;9.40;99.90;;;;;;5082542;28;19931;-67
2022/11/29 10:51:25;;;;;;;;;;;9.20;99.90;;;;;;5073947;28;19924;-66
2022/11/29 10:53:51;;;;;;;;;;;9.10;99.90;;;;;;5058401;28;20273;-66
2022/11/29 10:56:22;;;;;;;;;;;9.10;99.90;;;;;;5089934;28;19963;-66
2022/11/29 10:59:07;;;;;;;;;;;9.00;99.90;;;;;;5087448;28;20258;-66
2022/11/29 11:01:35;;;;;;;;;;;9.00;99.90;;;;;;5092257;28;20255;-66
2022/11/29 11:04:03;;;;;;;;;;;9.10;99.90;;;;;;5056884;28;19967;-66
2022/11/29 11:06:45;;;;;;;;;;;9.10;99.90;;;;;;5076907;28;20290;-64
2022/11/29 11:09:13;;;;;;;;;;;9.10;99.90;;;;;;5063343;28;19924;-64
2022/11/29 11:11:38;;;;;;;;;;;9.10;99.90;;;;;;5092714;28;19915;-64
2022/11/29 11:14:21;;;;;;;;;;;9.10;99.90;;;;;;5081308;28;20285;-64
2022/11/29 11:16:46;;;;;;;;;;;9.10;99.90;;;;;;5083059;28;19912;-67
2022/11/29 11:19:28;;;;;;;;;;;9.10;99.90;;;;;;5056738;28;20003;-67
2022/11/29 11:21:54;;;;;;;;;;;9.10;99.90;;;;;;5074888;28;19912;-68
2022/11/29 11:24:23;;;;;;;;;;;9.10;99.90;;;;;;5074694;28;19917;-67
2022/11/29 11:26:49;;;;;;;;;;;9.10;99.90;;;;;;5075886;28;19908;-68
2022/11/29 11:29:18;;;;;;;;;;;9.10;99.90;;;;;;5056208;28;19920;-67
2022/11/29 11:31:53;;;;;;;;;;;9.10;99.90;;;;;;5055960;28;19913;-68
2022/11/29 11:34:35;;;;;;;;;;;9.10;99.90;;;;;;5065689;28;19913;-67
2022/11/29 11:37:20;;;;;;;;;;;9.10;99.90;;;;;;5070890;28;19912;-70
2022/11/29 11:39:47;;;;;;;;;;;9.10;99.90;;;;;;5067621;28;20451;-67
2022/11/29 11:42:36;;;;;;;;;;;9.20;99.90;;;;;;5064723;28;20282;-67
2022/11/29 11:45:04;;;;;;;;;;;9.10;99.90;;;;;;5074865;28;19917;-66
2022/11/29 11:47:31;;;;;;;;;;;9.10;99.90;;;;;;5074254;28;19999;-67
2022/11/29 11:52:41;;;;;;;;;;;9.10;99.90;;;;;;5075246;28;19923;-66
2022/11/29 11:55:24;;;;;;;;;;;9.10;99.90;;;;;;5052283;28;20398;-66
2022/11/29 11:57:58;;;;;;;;;;;9.20;99.90;;;;;;5050313;28;19917;-67
2022/11/29 12:00:41;;;;;;;;;;;9.10;99.90;;;;;;5054323;28;19913;-66
2022/11/29 12:03:19;;;;;;;;;;;9.20;99.90;;;;;;5050835;28;19917;-66
2022/11/29 12:05:46;;;;;;;;;;;9.20;99.90;;;;;;5056590;28;19963;-66
2022/11/29 12:08:12;;;;;;;;;;;9.20;99.90;;;;;;5051375;28;19975;-66
2022/11/29 12:10:39;;;;;;;;;;;9.10;99.90;;;;;;5051636;28;19917;-66
2022/11/29 12:13:04;;;;;;;;;;;9.00;99.90;;;;;;5050286;28;19910;-66
2022/11/29 12:15:33;;;;;;;;;;;9.00;99.90;;;;;;5048383;28;20266;-66
2022/11/29 12:18:02;;;;;;;;;;;9.00;99.90;;;;;;5063006;28;19917;-66
2022/11/29 12:20:48;;;;;;;;;;;9.00;99.90;;;;;;5053750;28;19931;-66
2022/11/29 12:25:54;;;;;;;;;;;9.00;99.90;;;;;;5068180;28;20324;-67
2022/11/29 12:28:21;;;;;;;;;;;9.00;99.90;;;;;;5059033;28;20286;-66
2022/11/29 12:30:57;;;;;;;;;;;9.00;99.90;;;;;;5054523;28;19956;-66
2022/11/29 12:33:35;;;;;;;;;;;8.90;99.90;;;;;;5047214;28;19917;-68
2022/11/29 12:36:14;;;;;;;;;;;8.90;99.90;;;;;;5039905;28;20016;-68
2022/11/29 12:38:49;;;;;;;;;;;8.90;99.90;;;;;;5048849;28;19910;-68
2022/11/29 12:41:18;;;;;;;;;;;8.90;99.90;;;;;;5061277;28;20393;-66
2022/11/29 12:43:54;;;;;;;;;;;8.90;99.90;;;;;;5070048;28;19939;-66
2022/11/29 12:46:23;;;;;;;;;;;8.90;99.90;;;;;;5052895;28;19913;-67
2022/11/29 12:48:55;;;;;;;;;;;8.90;99.90;;;;;;5050616;28;19912;-66
2022/11/29 12:51:41;;;;;;;;;;;8.90;99.90;;;;;;5050492;28;19913;-66
2022/11/29 12:54:18;;;;;;;;;;;8.90;99.90;;;;;;5050206;28;19917;-66
2022/11/29 12:56:50;;;;;;;;;;;8.90;99.90;;;;;;5052757;28;19960;-66
2022/11/29 12:59:35;;;;;;;;;;;8.90;99.90;;;;;;5048806;28;19913;-66
2022/11/29 13:02:11;;;;;;;;;;;8.90;99.90;;;;;;5050126;28;19910;-66
2022/11/29 13:04:56;;;;;;;;;;;8.90;99.90;;;;;;5049793;28;20005;-66
2022/11/29 13:07:28;;;;;;;;;;;8.90;99.90;;;;;;5051157;28;20298;-67
2022/11/29 13:09:59;;;;;;;;;;;8.90;99.90;;;;;;5049382;28;19956;-65
2022/11/29 13:12:31;;;;;;;;;;;8.80;99.90;;;;;;5051346;28;19974;-65
2022/11/29 13:15:02;;;;;;;;;;;8.70;99.90;;;;;;5069501;28;19912;-65
2022/11/29 13:17:34;;;;;;;;;;;8.70;99.90;;;;;;5066592;28;19925;-66
2022/11/29 13:20:12;;;;;;;;;;;8.70;99.90;;;;;;5043452;28;20003;-69
2022/11/29 13:22:45;;;;;;;;;;;8.70;99.90;;;;;;5038953;28;19912;-66
2022/11/29 13:25:19;;;;;;;;;;;8.70;99.90;;;;;;5084255;28;19968;-67
2022/11/29 13:27:51;;;;;;;;;;;8.70;99.90;;;;;;5080160;28;19919;-66
2022/11/29 13:30:17;;;;;;;;;;;8.60;99.90;;;;;;5070717;28;20007;-67
2022/11/29 13:32:49;;;;;;;;;;;8.60;99.90;;;;;;5073188;28;19999;-66
2022/11/29 13:35:26;;;;;;;;;;;8.60;99.90;;;;;;5081722;28;20373;-67
2022/11/29 13:37:54;;;;;;;;;;;8.60;99.90;;;;;;5059092;28;19920;-67
2022/11/29 13:43:19;;;;;;;;;;;8.50;99.90;;;;;;5090911;27;19912;-66
2022/11/29 13:46:04;;;;;;;;;;;8.50;99.90;;;;;;5081984;28;19913;-65
2022/11/29 13:48:33;;;;;;;;;;;8.50;99.90;;;;;;5108829;28;20014;-66
2022/11/29 13:51:18;;;;;;;;;;;8.60;99.90;;;;;;5082415;28;19956;-66
2022/11/29 13:53:44;;;;;;;;;;;8.50;99.90;;;;;;5070676;28;19920;-66
2022/11/29 13:56:23;;;;;;;;;;;8.60;99.90;;;;;;5095191;28;19912;-66
2022/11/29 13:58:51;;;;;;;;;;;8.50;99.90;;;;;;5087178;28;19916;-66
2022/11/29 14:01:16;;;;;;;;;;;8.50;99.90;;;;;;5090345;28;20011;-67
2022/11/29 14:03:44;;;;;;;;;;;8.40;99.90;;;;;;5090508;28;20012;-66
2022/11/29 14:06:12;;;;;;;;;;;8.40;99.90;;;;;;5090232;28;19916;-66
2022/11/29 14:08:39;;;;;;;;;;;8.40;99.90;;;;;;5098351;28;19912;-66
2022/11/29 14:11:16;;;;;;;;;;;8.50;99.90;;;;;;5081497;28;19973;-66
2022/11/29 14:13:47;;;;;;;;;;;8.50;99.90;;;;;;5099211;28;20281;-66
2022/11/29 14:16:18;;;;;;;;;;;8.40;99.90;;;;;;5079803;28;19916;-66
2022/11/29 14:18:46;;;;;;;;;;;8.40;99.90;;;;;;5099630;28;19955;-66
2022/11/29 14:21:11;;;;;;;;;;;8.50;99.90;;;;;;5080063;28;19916;-66
2022/11/29 14:23:39;;;;;;;;;;;8.50;99.90;;;;;;5100734;28;19919;-66
2022/11/29 14:28:42;;;;;;;;;;;8.50;99.90;;;;;;5088609;27;19916;-67
2022/11/29 14:31:08;;;;;;;;;;;8.50;99.90;;;;;;5074321;28;19949;-66
2022/11/29 14:33:37;;;;;;;;;;;8.50;99.90;;;;;;5076284;28;19920;-66
2022/11/29 14:36:12;;;;;;;;;;;8.40;99.90;;;;;;5094581;28;19954;-66
2022/11/29 14:38:44;;;;;;;;;;;8.40;99.90;;;;;;5086392;28;19916;-66
2022/11/29 14:41:30;;;;;;;;;;;8.50;99.90;;;;;;5071350;28;19912;-67
2022/11/29 14:44:03;;;;;;;;;;;8.40;99.90;;;;;;5082583;28;19970;-69
2022/11/29 14:46:30;;;;;;;;;;;8.50;99.90;;;;;;5100047;28;19956;-67
2022/11/29 14:48:58;;;;;;;;;;;8.50;99.90;;;;;;5089661;28;19966;-69
2022/11/29 14:51:25;;;;;;;;;;;8.50;99.90;;;;;;5082410;28;19916;-67
2022/11/29 14:54:02;;;;;;;;;;;8.50;99.90;;;;;;5093448;28;19957;-67
2022/11/29 14:59:25;;;;;;;;;;;8.50;99.90;;;;;;5131864;27;19912;-67
2022/11/29 15:01:51;;;;;;;;;;;8.50;99.90;;;;;;5131264;28;20014;-67
2022/11/29 15:04:16;;;;;;;;;;;8.50;99.90;;;;;;5112634;27;20364;-69
2022/11/29 15:06:42;;;;;;;;;;;8.50;99.90;;;;;;5129051;27;19919;-67
2022/11/29 15:09:14;;;;;;;;;;;8.50;99.90;;;;;;5128679;27;19970;-67
2022/11/29 15:11:59;;;;;;;;;;;8.40;99.90;;;;;;5113182;28;19916;-67
2022/11/29 15:14:45;;;;;;;;;;;8.50;99.90;;;;;;5130226;27;19911;-67
2022/11/29 15:17:16;;;;;;;;;;;8.40;99.90;;;;;;5131023;28;19919;-68
2022/11/29 15:20:01;;;;;;;;;;;8.40;99.90;;;;;;5130449;28;19969;-66
2022/11/29 15:22:41;;;;;;;;;;;8.40;99.90;;;;;;5129807;27;19974;-66
2022/11/29 15:25:10;;;;;;;;;;;8.40;99.90;;;;;;5130117;27;20262;-66
2022/11/29 15:27:36;;;;;;;;;;;8.40;99.90;;;;;;5130784;28;19924;-66
2022/11/29 15:30:17;;;;;;;;;;;8.30;99.90;;;;;;5129389;27;20529;-66